sensor_id;sensor_type;location;lat;lon;timestamp;P1;durP1;ratioP1;P2;durP2;ratioP2
57663;SDS011;43493;53.098;6.064;2022-07-23T00:01:17;10.13;;;4.60;;
57663;SDS011;43493;53.098;6.064;2022-07-23T00:03:43;10.40;;;4.50;;
57663;SDS011;43493;53.098;6.064;2022-07-23T00:06:08;6.13;;;4.30;;
57663;SDS011;43493;53.098;6.064;2022-07-23T00:08:34;8.70;;;4.73;;
57663;SDS011;43493;53.098;6.064;2022-07-23T00:11:00;6.57;;;4.50;;
57663;SDS011;43493;53.098;6.064;2022-07-23T00:13:26;9.80;;;4.50;;
57663;SDS011;43493;53.098;6.064;2022-07-23T00:15:52;8.23;;;4.70;;
57663;SDS011;43493;53.098;6.064;2022-07-23T00:18:18;8.80;;;4.50;;
57663;SDS011;43493;53.098;6.064;2022-07-23T00:20:44;6.33;;;4.73;;
57663;SDS011;43493;53.098;6.064;2022-07-23T00:23:10;7.90;;;4.50;;
57663;SDS011;43493;53.098;6.064;2022-07-23T00:25:36;7.10;;;5.30;;
57663;SDS011;43493;53.098;6.064;2022-07-23T00:28:02;7.70;;;4.90;;
57663;SDS011;43493;53.098;6.064;2022-07-23T00:30:29;7.47;;;4.80;;
57663;SDS011;43493;53.098;6.064;2022-07-23T00:32:58;9.90;;;5.40;;
57663;SDS011;43493;53.098;6.064;2022-07-23T00:35:29;6.93;;;4.97;;
57663;SDS011;43493;53.098;6.064;2022-07-23T00:37:57;9.00;;;4.73;;
57663;SDS011;43493;53.098;6.064;2022-07-23T00:40:23;8.17;;;5.10;;
57663;SDS011;43493;53.098;6.064;2022-07-23T00:42:50;7.73;;;4.37;;
57663;SDS011;43493;53.098;6.064;2022-07-23T00:45:16;8.23;;;5.13;;
57663;SDS011;43493;53.098;6.064;2022-07-23T00:47:42;9.90;;;4.60;;
57663;SDS011;43493;53.098;6.064;2022-07-23T00:50:08;8.13;;;4.70;;
57663;SDS011;43493;53.098;6.064;2022-07-23T00:52:34;6.50;;;4.47;;
57663;SDS011;43493;53.098;6.064;2022-07-23T00:55:01;8.80;;;4.50;;
57663;SDS011;43493;53.098;6.064;2022-07-23T00:57:28;7.40;;;5.13;;
57663;SDS011;43493;53.098;6.064;2022-07-23T00:59:53;6.90;;;4.30;;
57663;SDS011;43493;53.098;6.064;2022-07-23T01:02:19;8.40;;;4.30;;
57663;SDS011;43493;53.098;6.064;2022-07-23T01:04:45;8.83;;;4.50;;
57663;SDS011;43493;53.098;6.064;2022-07-23T01:07:11;6.57;;;4.50;;
57663;SDS011;43493;53.098;6.064;2022-07-23T01:09:37;6.37;;;3.87;;
57663;SDS011;43493;53.098;6.064;2022-07-23T01:12:03;9.03;;;4.00;;
57663;SDS011;43493;53.098;6.064;2022-07-23T01:14:29;7.20;;;4.50;;
57663;SDS011;43493;53.098;6.064;2022-07-23T01:16:54;7.60;;;4.70;;
57663;SDS011;43493;53.098;6.064;2022-07-23T01:19:20;7.53;;;4.47;;
57663;SDS011;43493;53.098;6.064;2022-07-23T01:21:47;8.03;;;4.03;;
57663;SDS011;43493;53.098;6.064;2022-07-23T01:24:14;7.53;;;4.53;;
57663;SDS011;43493;53.098;6.064;2022-07-23T01:26:44;6.43;;;4.17;;
57663;SDS011;43493;53.098;6.064;2022-07-23T01:29:11;8.27;;;4.50;;
57663;SDS011;43493;53.098;6.064;2022-07-23T01:31:38;7.43;;;4.23;;
57663;SDS011;43493;53.098;6.064;2022-07-23T01:34:04;7.20;;;4.37;;
57663;SDS011;43493;53.098;6.064;2022-07-23T01:36:31;8.00;;;3.97;;
57663;SDS011;43493;53.098;6.064;2022-07-23T01:38:56;9.17;;;4.20;;
57663;SDS011;43493;53.098;6.064;2022-07-23T01:41:22;7.30;;;4.40;;
57663;SDS011;43493;53.098;6.064;2022-07-23T01:43:48;8.13;;;5.03;;
57663;SDS011;43493;53.098;6.064;2022-07-23T01:46:14;6.43;;;4.10;;
57663;SDS011;43493;53.098;6.064;2022-07-23T01:48:40;11.30;;;4.20;;
57663;SDS011;43493;53.098;6.064;2022-07-23T01:51:05;7.13;;;4.00;;
57663;SDS011;43493;53.098;6.064;2022-07-23T01:53:31;8.93;;;4.20;;
57663;SDS011;43493;53.098;6.064;2022-07-23T01:55:57;9.37;;;4.70;;
57663;SDS011;43493;53.098;6.064;2022-07-23T01:58:24;8.53;;;4.17;;
57663;SDS011;43493;53.098;6.064;2022-07-23T02:00:50;7.90;;;4.93;;
57663;SDS011;43493;53.098;6.064;2022-07-23T02:03:16;8.20;;;4.57;;
57663;SDS011;43493;53.098;6.064;2022-07-23T02:05:42;6.73;;;4.77;;
57663;SDS011;43493;53.098;6.064;2022-07-23T02:08:07;6.90;;;4.60;;
57663;SDS011;43493;53.098;6.064;2022-07-23T02:10:33;9.03;;;5.27;;
57663;SDS011;43493;53.098;6.064;2022-07-23T02:12:59;6.53;;;5.10;;
57663;SDS011;43493;53.098;6.064;2022-07-23T02:15:24;6.20;;;4.90;;
57663;SDS011;43493;53.098;6.064;2022-07-23T02:17:50;6.20;;;4.67;;
57663;SDS011;43493;53.098;6.064;2022-07-23T02:20:16;9.33;;;4.97;;
57663;SDS011;43493;53.098;6.064;2022-07-23T02:22:42;8.90;;;4.47;;
57663;SDS011;43493;53.098;6.064;2022-07-23T02:25:08;13.20;;;5.27;;
57663;SDS011;43493;53.098;6.064;2022-07-23T02:27:34;7.27;;;4.40;;
57663;SDS011;43493;53.098;6.064;2022-07-23T02:30:01;7.93;;;4.70;;
57663;SDS011;43493;53.098;6.064;2022-07-23T02:32:27;7.97;;;4.80;;
57663;SDS011;43493;53.098;6.064;2022-07-23T02:34:52;8.63;;;5.07;;
57663;SDS011;43493;53.098;6.064;2022-07-23T02:37:18;7.37;;;5.03;;
57663;SDS011;43493;53.098;6.064;2022-07-23T02:39:44;7.20;;;5.20;;
57663;SDS011;43493;53.098;6.064;2022-07-23T02:42:10;7.53;;;4.50;;
57663;SDS011;43493;53.098;6.064;2022-07-23T02:44:35;10.00;;;5.13;;
57663;SDS011;43493;53.098;6.064;2022-07-23T02:47:02;11.03;;;5.27;;
57663;SDS011;43493;53.098;6.064;2022-07-23T02:49:27;10.33;;;5.27;;
57663;SDS011;43493;53.098;6.064;2022-07-23T02:51:53;8.23;;;5.23;;
57663;SDS011;43493;53.098;6.064;2022-07-23T02:54:19;5.77;;;4.80;;
57663;SDS011;43493;53.098;6.064;2022-07-23T02:56:45;6.70;;;4.77;;
57663;SDS011;43493;53.098;6.064;2022-07-23T02:59:10;7.53;;;5.17;;
57663;SDS011;43493;53.098;6.064;2022-07-23T03:01:36;7.97;;;4.70;;
57663;SDS011;43493;53.098;6.064;2022-07-23T03:04:02;10.43;;;5.10;;
57663;SDS011;43493;53.098;6.064;2022-07-23T03:06:28;7.10;;;5.00;;
57663;SDS011;43493;53.098;6.064;2022-07-23T03:08:54;7.03;;;4.90;;
57663;SDS011;43493;53.098;6.064;2022-07-23T03:11:19;7.90;;;5.20;;
57663;SDS011;43493;53.098;6.064;2022-07-23T03:13:45;8.67;;;5.20;;
57663;SDS011;43493;53.098;6.064;2022-07-23T03:16:11;6.50;;;4.97;;
57663;SDS011;43493;53.098;6.064;2022-07-23T03:18:37;7.57;;;5.10;;
57663;SDS011;43493;53.098;6.064;2022-07-23T03:21:03;7.00;;;4.60;;
57663;SDS011;43493;53.098;6.064;2022-07-23T03:23:29;7.90;;;5.17;;
57663;SDS011;43493;53.098;6.064;2022-07-23T03:25:54;8.10;;;5.33;;
57663;SDS011;43493;53.098;6.064;2022-07-23T03:28:20;7.00;;;4.77;;
57663;SDS011;43493;53.098;6.064;2022-07-23T03:30:46;8.63;;;6.07;;
57663;SDS011;43493;53.098;6.064;2022-07-23T03:33:12;9.83;;;5.03;;
57663;SDS011;43493;53.098;6.064;2022-07-23T03:35:38;9.03;;;5.70;;
57663;SDS011;43493;53.098;6.064;2022-07-23T03:38:04;6.80;;;4.90;;
57663;SDS011;43493;53.098;6.064;2022-07-23T03:40:30;9.27;;;5.20;;
57663;SDS011;43493;53.098;6.064;2022-07-23T03:42:56;7.70;;;5.47;;
57663;SDS011;43493;53.098;6.064;2022-07-23T03:45:22;9.40;;;5.60;;
57663;SDS011;43493;53.098;6.064;2022-07-23T03:47:47;8.00;;;5.20;;
57663;SDS011;43493;53.098;6.064;2022-07-23T03:50:13;6.73;;;5.33;;
57663;SDS011;43493;53.098;6.064;2022-07-23T03:52:39;8.63;;;5.33;;
57663;SDS011;43493;53.098;6.064;2022-07-23T03:55:05;10.07;;;5.97;;
57663;SDS011;43493;53.098;6.064;2022-07-23T03:57:32;7.00;;;5.30;;
57663;SDS011;43493;53.098;6.064;2022-07-23T03:59:58;6.17;;;4.83;;
57663;SDS011;43493;53.098;6.064;2022-07-23T04:02:23;8.97;;;5.63;;
57663;SDS011;43493;53.098;6.064;2022-07-23T04:04:49;11.13;;;5.27;;
57663;SDS011;43493;53.098;6.064;2022-07-23T04:07:15;6.33;;;4.80;;
57663;SDS011;43493;53.098;6.064;2022-07-23T04:09:42;8.80;;;5.10;;
57663;SDS011;43493;53.098;6.064;2022-07-23T04:12:08;6.87;;;5.27;;
57663;SDS011;43493;53.098;6.064;2022-07-23T04:14:35;7.33;;;5.23;;
57663;SDS011;43493;53.098;6.064;2022-07-23T04:17:00;9.60;;;5.13;;
57663;SDS011;43493;53.098;6.064;2022-07-23T04:19:26;7.57;;;5.00;;
57663;SDS011;43493;53.098;6.064;2022-07-23T04:21:52;10.50;;;5.07;;
57663;SDS011;43493;53.098;6.064;2022-07-23T04:24:18;11.13;;;6.00;;
57663;SDS011;43493;53.098;6.064;2022-07-23T04:26:44;8.30;;;5.27;;
57663;SDS011;43493;53.098;6.064;2022-07-23T04:29:10;7.83;;;5.30;;
57663;SDS011;43493;53.098;6.064;2022-07-23T04:31:36;15.03;;;9.10;;
57663;SDS011;43493;53.098;6.064;2022-07-23T04:34:02;11.33;;;9.10;;
57663;SDS011;43493;53.098;6.064;2022-07-23T04:36:28;9.27;;;6.70;;
57663;SDS011;43493;53.098;6.064;2022-07-23T04:38:54;10.30;;;6.27;;
57663;SDS011;43493;53.098;6.064;2022-07-23T04:41:20;8.13;;;6.13;;
57663;SDS011;43493;53.098;6.064;2022-07-23T04:43:45;8.80;;;5.70;;
57663;SDS011;43493;53.098;6.064;2022-07-23T04:46:11;9.17;;;5.33;;
57663;SDS011;43493;53.098;6.064;2022-07-23T04:48:37;6.90;;;5.10;;
57663;SDS011;43493;53.098;6.064;2022-07-23T04:51:03;10.53;;;5.87;;
57663;SDS011;43493;53.098;6.064;2022-07-23T04:53:29;8.77;;;5.83;;
57663;SDS011;43493;53.098;6.064;2022-07-23T04:55:54;9.43;;;5.70;;
57663;SDS011;43493;53.098;6.064;2022-07-23T04:58:20;7.03;;;5.00;;
57663;SDS011;43493;53.098;6.064;2022-07-23T05:00:46;9.37;;;4.93;;
57663;SDS011;43493;53.098;6.064;2022-07-23T05:03:12;8.93;;;5.47;;
57663;SDS011;43493;53.098;6.064;2022-07-23T05:05:38;7.60;;;5.33;;
57663;SDS011;43493;53.098;6.064;2022-07-23T05:08:04;8.87;;;5.50;;
57663;SDS011;43493;53.098;6.064;2022-07-23T05:10:30;8.30;;;5.30;;
57663;SDS011;43493;53.098;6.064;2022-07-23T05:12:56;8.27;;;4.97;;
57663;SDS011;43493;53.098;6.064;2022-07-23T05:15:22;7.60;;;5.40;;
57663;SDS011;43493;53.098;6.064;2022-07-23T05:17:48;9.63;;;4.97;;
57663;SDS011;43493;53.098;6.064;2022-07-23T05:20:13;9.47;;;5.37;;
57663;SDS011;43493;53.098;6.064;2022-07-23T05:22:39;9.00;;;4.80;;
57663;SDS011;43493;53.098;6.064;2022-07-23T05:25:05;12.93;;;5.37;;
57663;SDS011;43493;53.098;6.064;2022-07-23T05:27:31;8.30;;;4.93;;
57663;SDS011;43493;53.098;6.064;2022-07-23T05:29:57;6.77;;;4.77;;
57663;SDS011;43493;53.098;6.064;2022-07-23T05:32:23;7.30;;;5.40;;
57663;SDS011;43493;53.098;6.064;2022-07-23T05:34:49;7.83;;;4.80;;
57663;SDS011;43493;53.098;6.064;2022-07-23T05:37:15;10.20;;;4.90;;
57663;SDS011;43493;53.098;6.064;2022-07-23T05:39:41;6.40;;;4.30;;
57663;SDS011;43493;53.098;6.064;2022-07-23T05:42:07;6.87;;;4.10;;
57663;SDS011;43493;53.098;6.064;2022-07-23T05:44:33;9.83;;;4.50;;
57663;SDS011;43493;53.098;6.064;2022-07-23T05:46:58;9.40;;;3.80;;
57663;SDS011;43493;53.098;6.064;2022-07-23T05:49:24;8.70;;;4.43;;
57663;SDS011;43493;53.098;6.064;2022-07-23T05:51:50;6.73;;;3.67;;
57663;SDS011;43493;53.098;6.064;2022-07-23T05:54:16;6.03;;;3.40;;
57663;SDS011;43493;53.098;6.064;2022-07-23T05:56:41;6.93;;;3.33;;
57663;SDS011;43493;53.098;6.064;2022-07-23T05:59:07;8.93;;;3.27;;
57663;SDS011;43493;53.098;6.064;2022-07-23T06:01:33;6.53;;;2.67;;
57663;SDS011;43493;53.098;6.064;2022-07-23T06:03:59;4.60;;;2.73;;
57663;SDS011;43493;53.098;6.064;2022-07-23T06:06:25;5.30;;;2.87;;
57663;SDS011;43493;53.098;6.064;2022-07-23T06:08:50;6.70;;;3.00;;
57663;SDS011;43493;53.098;6.064;2022-07-23T06:11:16;6.00;;;2.70;;
57663;SDS011;43493;53.098;6.064;2022-07-23T06:13:42;7.37;;;2.50;;
57663;SDS011;43493;53.098;6.064;2022-07-23T06:16:07;3.43;;;1.67;;
57663;SDS011;43493;53.098;6.064;2022-07-23T06:18:33;6.00;;;1.53;;
57663;SDS011;43493;53.098;6.064;2022-07-23T06:20:59;2.57;;;1.30;;
57663;SDS011;43493;53.098;6.064;2022-07-23T06:23:25;3.00;;;1.67;;
57663;SDS011;43493;53.098;6.064;2022-07-23T06:25:51;3.50;;;1.50;;
57663;SDS011;43493;53.098;6.064;2022-07-23T06:28:17;3.53;;;1.30;;
57663;SDS011;43493;53.098;6.064;2022-07-23T06:30:44;2.43;;;1.30;;
57663;SDS011;43493;53.098;6.064;2022-07-23T06:33:10;3.07;;;1.47;;
57663;SDS011;43493;53.098;6.064;2022-07-23T06:35:37;3.23;;;1.20;;
57663;SDS011;43493;53.098;6.064;2022-07-23T06:38:03;3.23;;;1.47;;
57663;SDS011;43493;53.098;6.064;2022-07-23T06:40:29;2.40;;;1.27;;
57663;SDS011;43493;53.098;6.064;2022-07-23T06:42:55;3.97;;;1.20;;
57663;SDS011;43493;53.098;6.064;2022-07-23T06:45:21;3.03;;;1.33;;
57663;SDS011;43493;53.098;6.064;2022-07-23T06:47:48;3.80;;;1.52;;
57663;SDS011;43493;53.098;6.064;2022-07-23T06:50:14;2.80;;;1.30;;
57663;SDS011;43493;53.098;6.064;2022-07-23T06:52:40;3.08;;;1.38;;
57663;SDS011;43493;53.098;6.064;2022-07-23T06:55:06;4.88;;;1.48;;
57663;SDS011;43493;53.098;6.064;2022-07-23T06:57:32;2.70;;;1.33;;
57663;SDS011;43493;53.098;6.064;2022-07-23T06:59:58;3.80;;;1.23;;
57663;SDS011;43493;53.098;6.064;2022-07-23T07:02:24;2.15;;;1.40;;
57663;SDS011;43493;53.098;6.064;2022-07-23T07:04:50;2.45;;;1.20;;
57663;SDS011;43493;53.098;6.064;2022-07-23T07:07:18;2.25;;;1.05;;
57663;SDS011;43493;53.098;6.064;2022-07-23T07:09:44;2.50;;;1.48;;
57663;SDS011;43493;53.098;6.064;2022-07-23T07:12:10;5.07;;;1.50;;
57663;SDS011;43493;53.098;6.064;2022-07-23T07:14:37;3.00;;;1.30;;
57663;SDS011;43493;53.098;6.064;2022-07-23T07:17:03;4.40;;;1.17;;
57663;SDS011;43493;53.098;6.064;2022-07-23T07:19:29;1.52;;;1.10;;
57663;SDS011;43493;53.098;6.064;2022-07-23T07:21:56;2.28;;;1.13;;
57663;SDS011;43493;53.098;6.064;2022-07-23T07:24:22;3.92;;;1.13;;
57663;SDS011;43493;53.098;6.064;2022-07-23T07:26:48;6.70;;;1.30;;
57663;SDS011;43493;53.098;6.064;2022-07-23T07:29:14;2.38;;;1.00;;
57663;SDS011;43493;53.098;6.064;2022-07-23T07:31:40;3.92;;;1.20;;
57663;SDS011;43493;53.098;6.064;2022-07-23T07:34:06;2.45;;;0.98;;
57663;SDS011;43493;53.098;6.064;2022-07-23T07:36:32;3.92;;;1.15;;
57663;SDS011;43493;53.098;6.064;2022-07-23T07:39:00;2.22;;;1.38;;
57663;SDS011;43493;53.098;6.064;2022-07-23T07:41:26;5.13;;;1.20;;
57663;SDS011;43493;53.098;6.064;2022-07-23T07:43:52;2.72;;;1.13;;
57663;SDS011;43493;53.098;6.064;2022-07-23T07:46:18;2.00;;;1.15;;
57663;SDS011;43493;53.098;6.064;2022-07-23T07:48:44;1.80;;;0.90;;
57663;SDS011;43493;53.098;6.064;2022-07-23T07:51:09;2.42;;;1.00;;
57663;SDS011;43493;53.098;6.064;2022-07-23T07:53:35;2.83;;;1.20;;
57663;SDS011;43493;53.098;6.064;2022-07-23T07:56:01;1.77;;;0.80;;
57663;SDS011;43493;53.098;6.064;2022-07-23T07:58:26;3.13;;;1.00;;
57663;SDS011;43493;53.098;6.064;2022-07-23T08:00:52;2.97;;;0.85;;
57663;SDS011;43493;53.098;6.064;2022-07-23T08:03:18;1.67;;;0.80;;
57663;SDS011;43493;53.098;6.064;2022-07-23T08:05:43;4.00;;;1.33;;
57663;SDS011;43493;53.098;6.064;2022-07-23T08:08:09;2.20;;;0.93;;
57663;SDS011;43493;53.098;6.064;2022-07-23T08:10:39;4.47;;;0.93;;
57663;SDS011;43493;53.098;6.064;2022-07-23T08:13:05;3.47;;;1.07;;
57663;SDS011;43493;53.098;6.064;2022-07-23T08:15:31;1.60;;;0.80;;
57663;SDS011;43493;53.098;6.064;2022-07-23T08:17:57;2.40;;;0.70;;
57663;SDS011;43493;53.098;6.064;2022-07-23T08:20:23;2.73;;;0.90;;
57663;SDS011;43493;53.098;6.064;2022-07-23T08:22:53;2.07;;;1.00;;
57663;SDS011;43493;53.098;6.064;2022-07-23T08:25:25;2.33;;;0.90;;
57663;SDS011;43493;53.098;6.064;2022-07-23T08:27:54;1.97;;;0.80;;
57663;SDS011;43493;53.098;6.064;2022-07-23T08:30:21;2.00;;;0.90;;
57663;SDS011;43493;53.098;6.064;2022-07-23T08:32:51;1.73;;;0.80;;
57663;SDS011;43493;53.098;6.064;2022-07-23T08:35:26;2.47;;;0.90;;
57663;SDS011;43493;53.098;6.064;2022-07-23T08:38:00;1.13;;;0.80;;
57663;SDS011;43493;53.098;6.064;2022-07-23T08:40:27;1.77;;;1.00;;
57663;SDS011;43493;53.098;6.064;2022-07-23T08:42:55;1.40;;;0.70;;
57663;SDS011;43493;53.098;6.064;2022-07-23T08:45:22;3.23;;;1.10;;
57663;SDS011;43493;53.098;6.064;2022-07-23T08:47:49;2.90;;;1.10;;
57663;SDS011;43493;53.098;6.064;2022-07-23T08:50:16;3.30;;;1.10;;
57663;SDS011;43493;53.098;6.064;2022-07-23T08:52:42;2.10;;;0.90;;
57663;SDS011;43493;53.098;6.064;2022-07-23T08:55:08;1.50;;;0.90;;
57663;SDS011;43493;53.098;6.064;2022-07-23T08:57:34;3.20;;;0.90;;
57663;SDS011;43493;53.098;6.064;2022-07-23T09:00:00;2.37;;;1.00;;
57663;SDS011;43493;53.098;6.064;2022-07-23T09:02:26;2.53;;;1.00;;
57663;SDS011;43493;53.098;6.064;2022-07-23T09:04:52;3.13;;;1.03;;
57663;SDS011;43493;53.098;6.064;2022-07-23T09:07:17;2.30;;;1.10;;
57663;SDS011;43493;53.098;6.064;2022-07-23T09:09:43;1.67;;;1.20;;
57663;SDS011;43493;53.098;6.064;2022-07-23T09:12:10;2.53;;;1.20;;
57663;SDS011;43493;53.098;6.064;2022-07-23T09:14:43;5.07;;;1.20;;
57663;SDS011;43493;53.098;6.064;2022-07-23T09:17:12;4.07;;;1.10;;
57663;SDS011;43493;53.098;6.064;2022-07-23T09:19:39;3.83;;;1.73;;
57663;SDS011;43493;53.098;6.064;2022-07-23T09:22:16;1.93;;;1.00;;
57663;SDS011;43493;53.098;6.064;2022-07-23T09:27:56;2.20;;;1.00;;
57663;SDS011;43493;53.098;6.064;2022-07-23T09:30:26;2.87;;;1.00;;
57663;SDS011;43493;53.098;6.064;2022-07-23T09:35:49;2.90;;;1.53;;
57663;SDS011;43493;53.098;6.064;2022-07-23T09:38:20;2.80;;;1.10;;
57663;SDS011;43493;53.098;6.064;2022-07-23T09:40:47;4.63;;;1.30;;
57663;SDS011;43493;53.098;6.064;2022-07-23T09:43:34;2.40;;;0.97;;
57663;SDS011;43493;53.098;6.064;2022-07-23T09:48:45;4.13;;;1.47;;
57663;SDS011;43493;53.098;6.064;2022-07-23T09:51:12;2.07;;;1.13;;
57663;SDS011;43493;53.098;6.064;2022-07-23T09:53:40;2.80;;;1.30;;
57663;SDS011;43493;53.098;6.064;2022-07-23T09:56:06;3.47;;;1.03;;
57663;SDS011;43493;53.098;6.064;2022-07-23T09:58:33;3.03;;;1.10;;
57663;SDS011;43493;53.098;6.064;2022-07-23T10:01:08;3.63;;;1.97;;
57663;SDS011;43493;53.098;6.064;2022-07-23T10:03:34;3.83;;;1.00;;
57663;SDS011;43493;53.098;6.064;2022-07-23T10:06:00;2.40;;;1.20;;
57663;SDS011;43493;53.098;6.064;2022-07-23T10:08:26;3.47;;;1.20;;
57663;SDS011;43493;53.098;6.064;2022-07-23T10:10:53;3.80;;;1.73;;
57663;SDS011;43493;53.098;6.064;2022-07-23T10:13:20;4.90;;;1.20;;
57663;SDS011;43493;53.098;6.064;2022-07-23T10:15:58;2.70;;;1.10;;
57663;SDS011;43493;53.098;6.064;2022-07-23T10:18:24;3.70;;;1.20;;
57663;SDS011;43493;53.098;6.064;2022-07-23T10:20:50;4.60;;;2.00;;
57663;SDS011;43493;53.098;6.064;2022-07-23T10:23:22;4.00;;;1.40;;
57663;SDS011;43493;53.098;6.064;2022-07-23T10:36:53;3.63;;;1.30;;
57663;SDS011;43493;53.098;6.064;2022-07-23T10:39:36;3.33;;;1.40;;
57663;SDS011;43493;53.098;6.064;2022-07-23T10:42:09;4.43;;;1.27;;
57663;SDS011;43493;53.098;6.064;2022-07-23T10:44:38;5.47;;;1.60;;
57663;SDS011;43493;53.098;6.064;2022-07-23T10:47:06;5.07;;;1.10;;
57663;SDS011;43493;53.098;6.064;2022-07-23T10:49:37;5.17;;;1.60;;
57663;SDS011;43493;53.098;6.064;2022-07-23T10:54:52;3.20;;;1.50;;
57663;SDS011;43493;53.098;6.064;2022-07-23T10:57:29;3.00;;;1.50;;
57663;SDS011;43493;53.098;6.064;2022-07-23T11:02:28;4.63;;;1.83;;
57663;SDS011;43493;53.098;6.064;2022-07-23T11:04:59;3.17;;;1.47;;
57663;SDS011;43493;53.098;6.064;2022-07-23T11:07:32;3.40;;;1.20;;
57663;SDS011;43493;53.098;6.064;2022-07-23T11:09:58;4.73;;;1.60;;
57663;SDS011;43493;53.098;6.064;2022-07-23T11:17:37;2.67;;;1.43;;
57663;SDS011;43493;53.098;6.064;2022-07-23T11:25:30;3.13;;;1.80;;
57663;SDS011;43493;53.098;6.064;2022-07-23T11:30:57;4.13;;;1.60;;
57663;SDS011;43493;53.098;6.064;2022-07-23T11:33:23;6.57;;;1.60;;
57663;SDS011;43493;53.098;6.064;2022-07-23T11:35:51;6.50;;;1.70;;
57663;SDS011;43493;53.098;6.064;2022-07-23T11:38:27;3.30;;;1.47;;
57663;SDS011;43493;53.098;6.064;2022-07-23T11:40:55;3.53;;;1.27;;
57663;SDS011;43493;53.098;6.064;2022-07-23T11:43:24;4.83;;;1.43;;
57663;SDS011;43493;53.098;6.064;2022-07-23T11:45:53;3.33;;;1.53;;
57663;SDS011;43493;53.098;6.064;2022-07-23T11:48:25;4.50;;;1.63;;
57663;SDS011;43493;53.098;6.064;2022-07-23T11:50:52;4.10;;;1.70;;
57663;SDS011;43493;53.098;6.064;2022-07-23T11:53:28;5.43;;;1.60;;
57663;SDS011;43493;53.098;6.064;2022-07-23T11:56:03;4.60;;;1.97;;
57663;SDS011;43493;53.098;6.064;2022-07-23T11:58:33;4.73;;;1.93;;
57663;SDS011;43493;53.098;6.064;2022-07-23T12:00:59;3.53;;;1.60;;
57663;SDS011;43493;53.098;6.064;2022-07-23T12:03:25;3.93;;;1.83;;
57663;SDS011;43493;53.098;6.064;2022-07-23T12:05:55;3.37;;;1.33;;
57663;SDS011;43493;53.098;6.064;2022-07-23T12:08:22;4.60;;;1.67;;
57663;SDS011;43493;53.098;6.064;2022-07-23T12:10:48;3.30;;;1.53;;
57663;SDS011;43493;53.098;6.064;2022-07-23T12:13:17;5.80;;;1.70;;
57663;SDS011;43493;53.098;6.064;2022-07-23T12:15:46;4.03;;;1.67;;
57663;SDS011;43493;53.098;6.064;2022-07-23T12:18:17;4.90;;;1.70;;
57663;SDS011;43493;53.098;6.064;2022-07-23T12:20:49;4.70;;;2.00;;
57663;SDS011;43493;53.098;6.064;2022-07-23T12:23:22;5.50;;;1.73;;
57663;SDS011;43493;53.098;6.064;2022-07-23T12:25:49;3.67;;;1.70;;
57663;SDS011;43493;53.098;6.064;2022-07-23T12:28:18;5.93;;;1.80;;
57663;SDS011;43493;53.098;6.064;2022-07-23T12:30:46;3.83;;;1.87;;
57663;SDS011;43493;53.098;6.064;2022-07-23T12:33:35;4.43;;;1.77;;
57663;SDS011;43493;53.098;6.064;2022-07-23T12:36:01;5.40;;;1.90;;
57663;SDS011;43493;53.098;6.064;2022-07-23T12:38:36;5.47;;;2.13;;
57663;SDS011;43493;53.098;6.064;2022-07-23T12:41:13;4.35;;;1.60;;
57663;SDS011;43493;53.098;6.064;2022-07-23T12:43:40;5.03;;;1.80;;
57663;SDS011;43493;53.098;6.064;2022-07-23T12:48:35;5.80;;;2.07;;
57663;SDS011;43493;53.098;6.064;2022-07-23T12:51:03;4.20;;;1.50;;
57663;SDS011;43493;53.098;6.064;2022-07-23T12:53:37;5.43;;;2.13;;
57663;SDS011;43493;53.098;6.064;2022-07-23T12:58:55;3.43;;;1.60;;
57663;SDS011;43493;53.098;6.064;2022-07-23T13:06:32;5.70;;;1.67;;
57663;SDS011;43493;53.098;6.064;2022-07-23T13:09:09;4.10;;;1.60;;
57663;SDS011;43493;53.098;6.064;2022-07-23T13:11:38;6.30;;;1.70;;
57663;SDS011;43493;53.098;6.064;2022-07-23T13:14:04;4.37;;;1.70;;
57663;SDS011;43493;53.098;6.064;2022-07-23T13:16:32;3.93;;;1.70;;
57663;SDS011;43493;53.098;6.064;2022-07-23T13:18:58;4.90;;;2.00;;
57663;SDS011;43493;53.098;6.064;2022-07-23T13:21:26;4.60;;;1.60;;
57663;SDS011;43493;53.098;6.064;2022-07-23T13:23:53;3.07;;;1.60;;
57663;SDS011;43493;53.098;6.064;2022-07-23T13:26:19;4.70;;;1.70;;
57663;SDS011;43493;53.098;6.064;2022-07-23T13:28:45;4.63;;;1.80;;
57663;SDS011;43493;53.098;6.064;2022-07-23T13:31:11;3.83;;;1.80;;
57663;SDS011;43493;53.098;6.064;2022-07-23T13:33:38;3.43;;;1.73;;
57663;SDS011;43493;53.098;6.064;2022-07-23T13:36:04;5.00;;;1.87;;
57663;SDS011;43493;53.098;6.064;2022-07-23T13:38:30;3.17;;;1.40;;
57663;SDS011;43493;53.098;6.064;2022-07-23T13:40:55;4.47;;;1.80;;
57663;SDS011;43493;53.098;6.064;2022-07-23T13:43:22;5.17;;;2.00;;
57663;SDS011;43493;53.098;6.064;2022-07-23T13:45:49;5.07;;;2.33;;
57663;SDS011;43493;53.098;6.064;2022-07-23T13:48:16;5.00;;;1.80;;
57663;SDS011;43493;53.098;6.064;2022-07-23T13:50:42;5.93;;;1.60;;
57663;SDS011;43493;53.098;6.064;2022-07-23T13:53:10;4.10;;;1.80;;
57663;SDS011;43493;53.098;6.064;2022-07-23T13:55:37;3.97;;;1.60;;
57663;SDS011;43493;53.098;6.064;2022-07-23T13:58:04;4.33;;;1.60;;
57663;SDS011;43493;53.098;6.064;2022-07-23T14:00:31;4.33;;;2.00;;
57663;SDS011;43493;53.098;6.064;2022-07-23T14:02:58;3.33;;;1.67;;
57663;SDS011;43493;53.098;6.064;2022-07-23T14:05:24;5.07;;;1.80;;
57663;SDS011;43493;53.098;6.064;2022-07-23T14:07:50;5.00;;;2.20;;
57663;SDS011;43493;53.098;6.064;2022-07-23T14:10:17;4.00;;;1.63;;
57663;SDS011;43493;53.098;6.064;2022-07-23T14:12:44;3.90;;;1.53;;
57663;SDS011;43493;53.098;6.064;2022-07-23T14:15:11;2.73;;;1.63;;
57663;SDS011;43493;53.098;6.064;2022-07-23T14:17:37;4.57;;;1.80;;
57663;SDS011;43493;53.098;6.064;2022-07-23T14:20:05;6.27;;;2.17;;
57663;SDS011;43493;53.098;6.064;2022-07-23T14:22:32;3.20;;;1.60;;
57663;SDS011;43493;53.098;6.064;2022-07-23T14:24:58;3.73;;;1.60;;
57663;SDS011;43493;53.098;6.064;2022-07-23T14:27:24;3.70;;;1.70;;
57663;SDS011;43493;53.098;6.064;2022-07-23T14:29:50;5.80;;;1.90;;
57663;SDS011;43493;53.098;6.064;2022-07-23T14:32:17;2.77;;;1.63;;
57663;SDS011;43493;53.098;6.064;2022-07-23T14:34:43;3.63;;;1.83;;
57663;SDS011;43493;53.098;6.064;2022-07-23T14:37:09;6.27;;;2.53;;
57663;SDS011;43493;53.098;6.064;2022-07-23T14:39:37;5.03;;;1.83;;
57663;SDS011;43493;53.098;6.064;2022-07-23T14:42:03;4.97;;;2.03;;
57663;SDS011;43493;53.098;6.064;2022-07-23T14:44:29;3.50;;;1.70;;
57663;SDS011;43493;53.098;6.064;2022-07-23T14:46:55;4.03;;;1.93;;
57663;SDS011;43493;53.098;6.064;2022-07-23T14:49:20;3.97;;;1.73;;
57663;SDS011;43493;53.098;6.064;2022-07-23T14:51:46;3.57;;;1.97;;
57663;SDS011;43493;53.098;6.064;2022-07-23T14:54:13;4.53;;;1.80;;
57663;SDS011;43493;53.098;6.064;2022-07-23T14:56:40;3.73;;;1.67;;
57663;SDS011;43493;53.098;6.064;2022-07-23T14:59:07;4.57;;;2.20;;
57663;SDS011;43493;53.098;6.064;2022-07-23T15:01:33;4.20;;;1.87;;
57663;SDS011;43493;53.098;6.064;2022-07-23T15:03:59;3.90;;;1.80;;
57663;SDS011;43493;53.098;6.064;2022-07-23T15:06:25;5.60;;;2.07;;
57663;SDS011;43493;53.098;6.064;2022-07-23T15:08:50;4.97;;;1.83;;
57663;SDS011;43493;53.098;6.064;2022-07-23T15:11:16;5.13;;;2.10;;
57663;SDS011;43493;53.098;6.064;2022-07-23T15:13:42;5.97;;;2.13;;
57663;SDS011;43493;53.098;6.064;2022-07-23T15:16:08;3.10;;;1.87;;
57663;SDS011;43493;53.098;6.064;2022-07-23T15:18:33;6.27;;;2.23;;
57663;SDS011;43493;53.098;6.064;2022-07-23T15:21:00;5.63;;;1.90;;
57663;SDS011;43493;53.098;6.064;2022-07-23T15:23:26;5.37;;;2.10;;
57663;SDS011;43493;53.098;6.064;2022-07-23T15:25:53;6.07;;;2.30;;
57663;SDS011;43493;53.098;6.064;2022-07-23T15:28:20;3.50;;;1.67;;
57663;SDS011;43493;53.098;6.064;2022-07-23T15:30:45;4.23;;;2.17;;
57663;SDS011;43493;53.098;6.064;2022-07-23T15:33:11;6.40;;;2.60;;
57663;SDS011;43493;53.098;6.064;2022-07-23T15:35:37;5.70;;;2.30;;